Time;durP1;ratioP1;P1;durP2;ratioP2;P2;SDS_P1;SDS_P2;PMS_P1;PMS_P2;Temp;Humidity;BMP_temperature;BMP_pressure;BME280_temperature;BME280_humidity;BME280_pressure;Samples;Min_cycle;Max_cycle;Signal;HPM_P1;HPM_P2
2022/10/03 00:02:18;;;;;;;10.82;4.53;;;8.60;99.90;;;;;;5052295;28;20033;-65
2022/10/03 00:04:59;;;;;;;8.52;4.93;;;8.60;99.90;;;;;;5052510;28;20052;-65
2022/10/03 00:07:36;;;;;;;8.18;4.47;;;8.60;99.90;;;;;;5050104;28;20366;-66
2022/10/03 00:10:46;;;;;;;10.25;5.50;;;8.60;99.90;;;;;;5047138;28;20094;-66
2022/10/03 00:13:41;;;;;;;8.25;5.65;;;8.60;99.90;;;;;;5021228;28;20420;-66
2022/10/03 00:16:18;;;;;;;9.98;5.80;;;8.50;99.90;;;;;;5046970;28;20419;-66
2022/10/03 00:19:04;;;;;;;10.23;5.28;;;8.40;99.90;;;;;;5026491;28;20041;-66
2022/10/03 00:21:50;;;;;;;8.20;5.00;;;8.40;99.90;;;;;;5056772;28;20041;-66
2022/10/03 00:24:20;;;;;;;9.63;4.90;;;8.40;99.90;;;;;;5073423;28;20101;-66
2022/10/03 00:26:56;;;;;;;11.00;5.18;;;8.40;99.90;;;;;;5032971;28;20049;-66
2022/10/03 00:29:23;;;;;;;10.02;6.03;;;8.40;99.90;;;;;;5031951;28;20041;-66
2022/10/03 00:32:14;;;;;;;12.30;6.05;;;8.30;99.90;;;;;;5052905;28;20094;-66
2022/10/03 00:35:12;;;;;;;7.10;4.18;;;8.30;99.90;;;;;;5031943;28;20057;-66
2022/10/03 00:37:55;;;;;;;9.15;4.95;;;8.30;99.90;;;;;;5031167;28;20053;-67
2022/10/03 00:40:44;;;;;;;11.75;5.20;;;8.30;99.90;;;;;;5048381;28;20095;-67
2022/10/03 00:43:29;;;;;;;11.13;5.85;;;8.20;99.90;;;;;;5034915;28;20114;-66
2022/10/03 00:46:33;;;;;;;10.98;5.22;;;8.20;99.90;;;;;;5051000;28;20114;-66
2022/10/03 00:49:24;;;;;;;8.48;4.57;;;8.20;99.90;;;;;;5050843;28;20098;-66
2022/10/03 00:52:20;;;;;;;9.63;4.75;;;8.20;99.90;;;;;;5051809;28;20081;-66
2022/10/03 00:54:56;;;;;;;15.32;5.07;;;8.10;99.90;;;;;;5031041;28;20049;-66
2022/10/03 00:57:59;;;;;;;8.43;5.20;;;8.10;99.90;;;;;;5048837;28;20049;-66
2022/10/03 01:00:27;;;;;;;7.68;3.95;;;8.10;99.90;;;;;;5031094;28;20068;-66
2022/10/03 01:03:13;;;;;;;9.45;5.25;;;8.00;99.90;;;;;;5027178;28;20041;-66
2022/10/03 01:05:53;;;;;;;9.10;5.20;;;8.00;99.90;;;;;;5046259;28;20086;-66
2022/10/03 01:08:38;;;;;;;7.35;4.45;;;8.00;99.90;;;;;;5033082;28;20183;-66
2022/10/03 01:11:24;;;;;;;9.90;6.22;;;8.00;99.90;;;;;;5040000;28;20052;-66
2022/10/03 01:13:53;;;;;;;8.95;5.20;;;8.00;99.90;;;;;;5051251;28;20037;-66
2022/10/03 01:16:30;;;;;;;7.20;4.57;;;8.00;99.90;;;;;;5051342;28;20049;-66
2022/10/03 01:19:26;;;;;;;9.95;5.57;;;8.00;99.90;;;;;;5051002;28;20076;-66
2022/10/03 01:22:08;;;;;;;8.35;4.93;;;7.90;99.90;;;;;;5051036;28;20550;-66
2022/10/03 01:24:50;;;;;;;9.63;4.72;;;7.90;99.90;;;;;;5051168;28;20049;-66
2022/10/03 01:30:21;;;;;;;10.48;5.28;;;7.90;99.90;;;;;;5051355;28;20045;-66
2022/10/03 01:34:04;;;;;;;7.32;4.78;;;7.90;99.90;;;;;;5031775;28;20051;-66
2022/10/03 01:36:50;;;;;;;7.75;4.43;;;7.80;99.90;;;;;;5031312;28;20077;-65
2022/10/03 01:40:03;;;;;;;9.73;5.18;;;7.80;99.90;;;;;;5016002;28;20096;-65
2022/10/03 01:42:54;;;;;;;8.93;4.05;;;7.80;99.90;;;;;;5016897;28;20077;-66
2022/10/03 01:45:29;;;;;;;9.02;5.35;;;7.80;99.90;;;;;;5014497;28;20045;-66
2022/10/03 01:48:00;;;;;;;9.15;4.30;;;7.80;99.90;;;;;;5046171;28;20045;-66
2022/10/03 01:50:47;;;;;;;10.57;4.88;;;7.80;99.90;;;;;;5036252;28;20032;-66
2022/10/03 01:53:27;;;;;;;6.82;4.15;;;7.80;99.90;;;;;;5042729;28;20047;-66
2022/10/03 01:56:09;;;;;;;9.13;4.78;;;7.80;99.90;;;;;;5033784;28;20052;-66
2022/10/03 01:59:12;;;;;;;9.30;5.47;;;7.80;99.90;;;;;;5043679;28;20041;-66
2022/10/03 02:01:45;;;;;;;10.10;4.72;;;7.70;99.90;;;;;;5054785;28;20090;-66
2022/10/03 02:04:20;;;;;;;9.98;5.40;;;7.70;99.90;;;;;;5051450;28;20052;-66
2022/10/03 02:06:53;;;;;;;6.05;4.50;;;7.70;99.90;;;;;;5034027;28;20186;-65
2022/10/03 02:09:30;;;;;;;7.72;4.13;;;7.70;99.90;;;;;;5039208;28;20049;-65
2022/10/03 02:12:09;;;;;;;11.70;5.35;;;7.70;99.90;;;;;;5046687;28;20045;-65
2022/10/03 02:14:54;;;;;;;7.95;4.32;;;7.70;99.90;;;;;;5054812;28;20426;-66
2022/10/03 02:17:57;;;;;;;6.63;5.20;;;7.70;99.90;;;;;;5051634;28;20056;-66
2022/10/03 02:20:44;;;;;;;8.10;4.53;;;7.60;99.90;;;;;;5044551;28;20537;-65
2022/10/03 02:23:30;;;;;;;7.97;4.20;;;7.60;99.90;;;;;;5045185;28;20131;-66
2022/10/03 02:26:35;;;;;;;12.68;6.68;;;7.60;99.90;;;;;;5050640;28;20423;-65
2022/10/03 02:29:30;;;;;;;9.77;4.53;;;7.60;99.90;;;;;;5041746;28;20053;-65
2022/10/03 02:32:28;;;;;;;10.02;4.40;;;7.60;99.90;;;;;;5051181;28;20072;-66
2022/10/03 02:35:09;;;;;;;11.45;4.95;;;7.50;99.90;;;;;;5051467;28;20071;-66
2022/10/03 02:37:48;;;;;;;9.13;4.78;;;7.40;99.90;;;;;;5048134;28;20134;-65
2022/10/03 02:40:36;;;;;;;8.32;5.53;;;7.40;99.90;;;;;;5053793;28;20045;-65
2022/10/03 02:43:16;;;;;;;9.07;4.80;;;7.40;99.90;;;;;;5049737;28;20094;-66
2022/10/03 02:45:58;;;;;;;12.60;5.78;;;7.40;99.90;;;;;;5058335;28;20038;-66
2022/10/03 02:48:56;;;;;;;12.63;5.25;;;7.40;99.90;;;;;;5043264;28;20080;-65
2022/10/03 02:51:53;;;;;;;13.27;6.38;;;7.40;99.90;;;;;;5042979;28;20094;-67
2022/10/03 02:54:58;;;;;;;13.75;5.70;;;7.40;99.90;;;;;;5042147;28;20102;-65
2022/10/03 02:57:52;;;;;;;11.57;6.07;;;7.40;99.90;;;;;;5049351;28;20068;-65
2022/10/03 03:00:33;;;;;;;7.18;4.63;;;7.30;99.90;;;;;;5048884;28;20044;-66
2022/10/03 03:03:57;;;;;;;7.53;4.65;;;7.30;99.90;;;;;;5048142;28;20063;-65
2022/10/03 03:06:42;;;;;;;8.52;5.40;;;7.30;99.90;;;;;;4988630;28;20117;-66
2022/10/03 03:10:19;;;;;;;15.10;6.03;;;7.30;99.90;;;;;;5002602;28;20041;-65
2022/10/03 03:13:05;;;;;;;9.57;4.00;;;7.20;99.90;;;;;;4961429;28;20046;-65
2022/10/03 03:15:42;;;;;;;6.43;4.28;;;7.20;99.90;;;;;;4981055;28;20046;-65
2022/10/03 03:18:21;;;;;;;7.93;5.20;;;7.20;99.90;;;;;;5025080;28;20127;-65
2022/10/03 03:21:28;;;;;;;7.70;4.13;;;7.20;99.90;;;;;;5053580;28;20048;-65
2022/10/03 03:24:01;;;;;;;7.30;4.20;;;7.10;99.90;;;;;;5049036;28;20090;-66
2022/10/03 03:26:46;;;;;;;7.70;4.07;;;7.10;99.90;;;;;;5053830;28;20099;-66
2022/10/03 03:29:30;;;;;;;7.65;4.18;;;7.10;99.90;;;;;;5076042;28;20084;-65
2022/10/03 03:32:10;;;;;;;6.70;4.13;;;7.10;99.90;;;;;;5035094;28;20041;-66
2022/10/03 03:35:03;;;;;;;9.40;4.38;;;7.10;99.90;;;;;;5050574;28;20053;-65
2022/10/03 03:37:45;;;;;;;11.52;4.60;;;7.10;99.90;;;;;;5052170;28;20476;-65
2022/10/03 03:40:34;;;;;;;12.75;5.15;;;7.20;99.90;;;;;;5051305;28;20140;-65
2022/10/03 03:43:01;;;;;;;7.45;4.57;;;7.20;99.90;;;;;;5053340;28;20049;-66
2022/10/03 03:45:59;;;;;;;7.97;4.60;;;7.10;99.90;;;;;;5059050;28;20090;-65
2022/10/03 03:48:49;;;;;;;7.88;5.15;;;7.10;99.90;;;;;;5058367;28;20039;-65
2022/10/03 03:51:28;;;;;;;;;;;7.10;99.90;;;;;;5053229;28;20041;-66
2022/10/03 03:54:18;;;;;;;6.20;4.13;;;7.10;99.90;;;;;;5056191;28;20253;-65
2022/10/03 03:57:03;;;;;;;7.75;4.82;;;7.10;99.90;;;;;;5052927;28;20472;-65
2022/10/03 03:59:56;;;;;;;7.68;4.25;;;7.00;99.90;;;;;;5051003;28;20048;-65
2022/10/03 04:03:01;;;;;;;9.07;4.60;;;7.00;99.90;;;;;;5056938;28;20037;-65
2022/10/03 04:05:55;;;;;;;12.77;5.78;;;7.00;99.90;;;;;;5053293;28;20037;-65
2022/10/03 04:08:47;;;;;;;8.48;4.78;;;7.00;99.90;;;;;;5053751;28;20068;-65
2022/10/03 04:11:38;;;;;;;7.78;4.55;;;6.90;99.90;;;;;;5054556;28;20044;-65
2022/10/03 04:14:41;;;;;;;9.45;5.38;;;6.90;99.90;;;;;;5048428;28;20102;-65
2022/10/03 04:20:35;;;;;;;9.02;6.05;;;7.00;99.90;;;;;;5046660;28;20045;-66
2022/10/03 04:23:18;;;;;;;11.52;5.88;;;6.90;99.90;;;;;;5056727;28;20538;-66
2022/10/03 04:26:09;;;;;;;7.18;4.57;;;6.90;99.90;;;;;;5053727;28;20037;-66
2022/10/03 04:29:15;;;;;;;6.95;5.00;;;6.80;99.90;;;;;;5053963;28;20049;-66
2022/10/03 04:32:07;;;;;;;7.53;4.38;;;6.80;99.90;;;;;;5049126;28;20052;-66
2022/10/03 04:35:16;;;;;;;9.55;4.55;;;6.80;99.90;;;;;;5053231;28;20120;-66
2022/10/03 04:37:43;;;;;;;8.05;4.05;;;6.80;99.90;;;;;;5044948;28;20531;-66
2022/10/03 04:40:38;;;;;;;6.70;4.30;;;6.80;99.90;;;;;;5053093;28;20060;-66
2022/10/03 04:43:13;;;;;;;10.93;4.80;;;6.80;99.90;;;;;;5050968;28;20377;-66
2022/10/03 04:45:59;;;;;;;10.27;5.38;;;6.80;99.90;;;;;;5052141;28;20102;-66
2022/10/03 04:48:27;;;;;;;8.07;4.53;;;6.80;99.90;;;;;;5051594;28;20048;-66
2022/10/03 04:51:16;;;;;;;6.50;4.63;;;6.80;99.90;;;;;;5059220;28;20040;-66
2022/10/03 04:54:14;;;;;;;7.15;4.72;;;6.80;99.90;;;;;;5043555;28;20045;-66
2022/10/03 04:56:52;;;;;;;6.53;4.07;;;6.90;99.90;;;;;;5040066;28;20423;-66
2022/10/03 04:59:45;;;;;;;7.68;3.97;;;6.90;99.90;;;;;;5055728;28;20072;-66
2022/10/03 05:02:21;;;;;;;6.68;4.78;;;6.90;99.90;;;;;;5056148;28;20048;-66
2022/10/03 05:05:08;;;;;;;10.05;5.18;;;6.80;99.90;;;;;;5052388;28;20464;-66
2022/10/03 05:07:46;;;;;;;11.95;4.55;;;6.90;99.90;;;;;;5041949;28;20443;-66
2022/10/03 05:10:22;;;;;;;6.68;4.35;;;6.90;99.90;;;;;;5035020;28;20049;-66
2022/10/03 05:13:03;;;;;;;9.68;4.25;;;6.90;99.90;;;;;;5052085;28;20045;-66
2022/10/03 05:15:48;;;;;;;8.30;4.85;;;6.90;99.90;;;;;;5054269;28;20041;-66
2022/10/03 05:18:20;;;;;;;8.23;3.95;;;7.00;99.90;;;;;;5054586;28;20541;-66
2022/10/03 05:20:59;;;;;;;8.18;5.70;;;7.00;99.90;;;;;;5052891;28;20036;-66
2022/10/03 05:23:28;;;;;;;8.35;4.45;;;7.00;99.90;;;;;;5049749;28;20098;-66
2022/10/03 05:26:07;;;;;;;7.27;4.93;;;7.00;99.90;;;;;;5050321;28;20103;-66
2022/10/03 05:29:14;;;;;;;7.90;4.05;;;7.00;99.90;;;;;;5048464;28;20043;-66
2022/10/03 05:32:05;;;;;;;7.10;4.55;;;7.10;99.90;;;;;;5054630;28;20049;-66
2022/10/03 05:34:37;;;;;;;7.68;4.93;;;7.10;99.90;;;;;;5052361;28;20057;-65
2022/10/03 05:37:19;;;;;;;7.50;4.40;;;7.10;99.90;;;;;;5030584;28;20091;-65
2022/10/03 05:40:13;;;;;;;5.68;3.97;;;7.10;99.90;;;;;;5050875;28;20449;-66
2022/10/03 05:42:40;;;;;;;6.80;3.85;;;7.10;99.90;;;;;;5049125;28;20048;-66
2022/10/03 05:45:22;;;;;;;8.95;4.68;;;7.10;99.90;;;;;;5051384;28;20044;-66
2022/10/03 05:48:13;;;;;;;12.93;4.85;;;7.10;99.90;;;;;;5049498;28;20090;-66
2022/10/03 05:51:00;;;;;;;7.53;4.95;;;7.20;99.90;;;;;;5056391;28;20197;-66
2022/10/03 05:53:48;;;;;;;10.43;4.97;;;7.20;99.90;;;;;;5058563;28;20047;-66
2022/10/03 05:56:47;;;;;;;7.35;5.38;;;7.20;99.90;;;;;;5073782;28;20045;-66
2022/10/03 05:59:38;;;;;;;15.38;4.70;;;7.20;99.90;;;;;;5051714;28;20098;-66
2022/10/03 06:02:17;;;;;;;4.63;3.72;;;7.20;99.90;;;;;;5051026;28;20082;-66
2022/10/03 06:04:57;;;;;;;9.13;4.70;;;7.20;99.90;;;;;;5052311;28;20087;-66
2022/10/03 06:07:25;;;;;;;;;;;7.30;99.90;;;;;;5046926;28;20037;-66
2022/10/03 06:10:17;;;;;;;9.05;4.13;;;7.20;99.90;;;;;;5044584;28;19916;-66
2022/10/03 06:13:14;;;;;;;5.95;4.25;;;7.30;99.90;;;;;;5056392;28;20040;-66
2022/10/03 06:15:41;;;;;;;7.47;4.55;;;7.30;99.90;;;;;;5051788;28;20421;-64
2022/10/03 06:18:41;;;;;;;122.32;91.97;;;7.30;99.90;;;;;;5051680;28;20076;-66
2022/10/03 06:21:24;;;;;;;19.58;14.32;;;7.30;99.90;;;;;;5053062;28;20111;-63
2022/10/03 06:24:03;;;;;;;14.25;9.20;;;7.40;99.90;;;;;;5052088;28;20067;-63
2022/10/03 06:27:03;;;;;;;15.25;8.32;;;7.40;99.90;;;;;;5051647;28;20037;-62
2022/10/03 06:29:45;;;;;;;7.95;5.80;;;7.50;99.90;;;;;;5052874;28;20103;-62
2022/10/03 06:32:50;;;;;;;8.60;5.90;;;7.50;99.90;;;;;;5053133;28;20052;-62
2022/10/03 06:35:54;;;;;;;12.23;7.65;;;7.60;99.90;;;;;;5052720;28;20095;-63
2022/10/03 06:38:42;;;;;;;9.18;8.15;;;7.60;99.90;;;;;;5052778;28;20455;-62
2022/10/03 06:41:30;;;;;;;11.35;7.90;;;7.70;99.90;;;;;;5053090;28;20480;-69
2022/10/03 06:44:06;;;;;;;10.35;5.88;;;7.80;99.90;;;;;;5052847;28;20052;-65
2022/10/03 06:47:01;;;;;;;12.82;6.38;;;7.80;99.90;;;;;;5051812;28;20037;-64
2022/10/03 06:49:52;;;;;;;11.88;6.50;;;7.90;99.90;;;;;;5053633;28;20040;-65
2022/10/03 06:52:40;;;;;;;9.38;5.18;;;8.00;99.90;;;;;;5053233;28;20047;-63
2022/10/03 06:55:33;;;;;;;8.88;5.03;;;8.00;99.90;;;;;;5056284;28;20040;-63
2022/10/03 06:58:22;;;;;;;10.77;6.18;;;8.10;99.90;;;;;;5056000;28;20040;-62
2022/10/03 07:01:10;;;;;;;6.88;4.75;;;8.20;99.90;;;;;;5055818;28;20392;-64
2022/10/03 07:03:55;;;;;;;11.80;6.35;;;8.20;99.90;;;;;;5056492;28;20051;-63
2022/10/03 07:06:22;;;;;;;45.20;30.30;;;8.30;99.90;;;;;;5056198;28;20044;-64
2022/10/03 07:09:27;;;;;;;15.10;9.80;;;8.40;99.90;;;;;;5055196;28;20052;-64
2022/10/03 07:11:59;;;;;;;14.18;7.70;;;8.50;99.90;;;;;;5057063;28;20040;-63
2022/10/03 07:14:35;;;;;;;8.85;5.60;;;8.50;99.90;;;;;;5056609;28;20041;-64
2022/10/03 07:17:21;;;;;;;16.85;6.28;;;8.70;99.90;;;;;;5039458;28;20055;-62
2022/10/03 07:20:01;;;;;;;8.93;5.82;;;8.70;99.90;;;;;;5039011;28;20041;-64
2022/10/03 07:23:01;;;;;;;13.43;6.10;;;8.80;99.90;;;;;;5056748;28;20076;-62
2022/10/03 07:25:38;;;;;;;8.75;5.38;;;8.90;99.90;;;;;;5056288;28;20041;-64
2022/10/03 07:28:08;;;;;;;7.25;5.00;;;9.00;99.90;;;;;;5055646;28;20099;-63
2022/10/03 07:30:53;;;;;;;10.93;5.35;;;9.10;99.90;;;;;;5055686;28;20102;-63
2022/10/03 07:33:47;;;;;;;12.88;7.03;;;9.20;99.90;;;;;;5055988;28;20077;-65
2022/10/03 07:39:51;;;;;;;13.93;9.05;;;9.40;99.90;;;;;;5055324;28;20481;-63
2022/10/03 07:42:40;;;;;;;14.27;8.80;;;9.50;99.90;;;;;;5055377;28;20095;-62
2022/10/03 07:45:38;;;;;;;12.07;6.60;;;9.60;99.90;;;;;;5055577;28;20048;-66
2022/10/03 07:48:29;;;;;;;9.77;5.90;;;9.70;99.90;;;;;;5056362;28;20350;-62
2022/10/03 07:51:26;;;;;;;12.23;6.13;;;9.80;99.90;;;;;;5055267;28;20182;-63
2022/10/03 07:54:17;;;;;;;10.30;6.15;;;9.90;99.90;;;;;;5055407;28;20106;-63
2022/10/03 07:56:55;;;;;;;10.93;5.70;;;10.00;99.90;;;;;;5038634;28;20068;-62
2022/10/03 07:59:59;;;;;;;10.38;6.07;;;10.10;99.90;;;;;;5055067;28;20412;-62
2022/10/03 08:02:43;;;;;;;10.98;5.53;;;10.20;99.90;;;;;;5038051;28;20455;-63
2022/10/03 08:05:28;;;;;;;19.65;7.68;;;10.30;99.90;;;;;;5054391;28;20041;-62
2022/10/03 08:08:43;;;;;;;11.40;6.10;;;10.30;99.90;;;;;;5055788;28;20099;-63
2022/10/03 08:11:40;;;;;;;18.50;6.57;;;10.40;99.90;;;;;;5035723;28;20513;-62
2022/10/03 08:14:13;;;;;;;34.50;13.02;;;10.50;99.90;;;;;;5038335;28;20137;-61
2022/10/03 08:17:13;;;;;;;35.97;11.18;;;10.50;99.90;;;;;;5056141;28;20048;-62
2022/10/03 08:19:58;;;;;;;17.20;7.03;;;10.70;99.90;;;;;;5055662;28;20040;-63
2022/10/03 08:22:53;;;;;;;15.60;6.50;;;10.80;99.90;;;;;;5054001;28;20049;-62
2022/10/03 08:25:48;;;;;;;11.98;5.93;;;10.90;99.90;;;;;;5055532;28;20384;-62
2022/10/03 08:28:37;;;;;;;23.33;12.73;;;11.00;99.90;;;;;;5055680;28;20087;-64
2022/10/03 08:31:31;;;;;;;29.30;11.05;;;11.20;99.90;;;;;;5056629;28;20492;-64
2022/10/03 08:34:13;;;;;;;16.67;7.35;;;11.20;99.90;;;;;;5055140;28;20503;-63
2022/10/03 08:36:58;;;;;;;14.43;6.30;;;11.30;99.90;;;;;;5055346;28;20052;-63
2022/10/03 08:39:25;;;;;;;16.65;6.93;;;11.40;99.90;;;;;;5040062;28;20044;-64
2022/10/03 08:42:30;;;;;;;14.93;6.32;;;11.50;99.90;;;;;;5054585;28;20473;-63
2022/10/03 08:45:07;;;;;;;15.98;8.15;;;11.70;99.90;;;;;;5055682;28;20037;-63
2022/10/03 08:47:49;;;;;;;12.65;5.95;;;11.80;99.90;;;;;;5053618;28;20374;-62
2022/10/03 08:50:43;;;;;;;12.00;5.32;;;11.90;99.90;;;;;;5054273;28;20041;-64
2022/10/03 08:53:12;;;;;;;16.00;6.10;;;12.00;99.90;;;;;;5054405;28;20044;-70
2022/10/03 08:55:57;;;;;;;13.32;6.55;;;12.20;99.90;;;;;;5054433;28;20047;-72
2022/10/03 08:58:42;;;;;;;13.23;6.38;;;12.30;99.90;;;;;;5054033;28;20100;-70
2022/10/03 09:01:17;;;;;;;15.15;5.88;;;12.40;99.90;;;;;;5054282;28;20044;-66
2022/10/03 09:03:56;;;;;;;13.50;5.53;;;12.60;99.90;;;;;;5053940;28;20059;-67
2022/10/03 09:06:29;;;;;;;11.50;5.55;;;12.80;99.90;;;;;;5053661;28;20045;-65
2022/10/03 09:09:15;;;;;;;11.38;4.68;;;12.90;99.90;;;;;;5054514;28;20127;-64
2022/10/03 09:11:49;;;;;;;9.77;4.60;;;13.10;99.90;;;;;;5054253;28;20106;-68
2022/10/03 09:14:49;;;;;;;13.00;5.13;;;13.20;99.90;;;;;;5037151;28;20107;-65
2022/10/03 09:18:13;;;;;;;18.67;6.18;;;13.40;99.90;;;;;;5037157;28;20045;-67
2022/10/03 09:21:08;;;;;;;18.55;5.00;;;13.50;99.90;;;;;;5032650;28;20112;-65
2022/10/03 09:23:50;;;;;;;16.13;5.65;;;13.60;99.90;;;;;;5016147;28;20516;-65
2022/10/03 09:26:50;;;;;;;13.68;5.40;;;13.70;99.90;;;;;;5047782;28;20040;-65
2022/10/03 09:29:42;;;;;;;11.15;5.00;;;13.80;99.90;;;;;;5052580;28;20067;-65
2022/10/03 09:32:18;;;;;;;10.75;4.28;;;13.80;99.90;;;;;;5054566;28;20048;-65
2022/10/03 09:35:04;;;;;;;10.63;5.00;;;13.90;99.90;;;;;;5053575;28;20049;-65
2022/10/03 09:37:36;;;;;;;9.80;4.22;;;14.00;99.90;;;;;;5053378;28;20103;-65
2022/10/03 09:40:24;;;;;;;11.07;4.35;;;14.00;99.90;;;;;;5052148;28;20113;-65
2022/10/03 09:43:16;;;;;;;17.70;5.90;;;14.10;99.90;;;;;;5052910;28;20041;-65
2022/10/03 09:45:47;;;;;;;15.13;5.68;;;14.00;99.90;;;;;;5054047;28;20745;-65
2022/10/03 09:48:38;;;;;;;13.05;5.65;;;14.10;99.90;;;;;;5052901;28;20453;-65
2022/10/03 09:51:20;;;;;;;15.13;5.88;;;14.10;99.90;;;;;;5052226;28;20076;-65
2022/10/03 09:54:12;;;;;;;13.05;4.55;;;14.30;99.90;;;;;;5053022;28;20041;-66
2022/10/03 09:57:04;;;;;;;13.55;4.57;;;14.40;99.90;;;;;;5052193;28;20056;-68
2022/10/03 10:00:01;;;;;;;10.02;3.72;;;14.60;99.90;;;;;;5053711;28;20053;-70
2022/10/03 10:02:53;;;;;;;11.98;3.75;;;14.80;99.90;;;;;;5035684;28;20057;-67
2022/10/03 10:05:45;;;;;;;8.60;3.47;;;15.10;99.90;;;;;;5051951;28;20049;-67
2022/10/03 10:08:14;;;;;;;13.07;4.75;;;15.20;99.90;;;;;;5052251;28;20048;-66
2022/10/03 10:11:08;;;;;;;17.85;4.22;;;15.40;99.90;;;;;;5053326;28;20044;-70
2022/10/03 10:13:59;;;;;;;10.73;4.60;;;15.40;99.90;;;;;;5052127;28;20094;-68
2022/10/03 10:16:45;;;;;;;24.48;6.18;;;15.60;99.90;;;;;;5038900;28;20064;-68
2022/10/03 10:19:17;;;;;;;8.25;3.67;;;15.70;99.90;;;;;;5053439;28;20112;-69
2022/10/03 10:22:16;;;;;;;12.07;4.20;;;15.90;99.90;;;;;;5053782;28;20048;-69
2022/10/03 10:25:01;;;;;;;10.55;4.70;;;16.10;99.90;;;;;;5052386;28;20041;-70
2022/10/03 10:27:45;;;;;;;13.43;4.43;;;16.20;99.90;;;;;;5053290;28;20045;-70
2022/10/03 10:30:21;;;;;;;9.57;4.38;;;16.40;99.90;;;;;;5057353;28;20150;-69
2022/10/03 10:33:23;;;;;;;10.38;3.88;;;16.60;99.90;;;;;;5057010;28;20045;-68
2022/10/03 10:36:27;;;;;;;7.82;3.35;;;16.70;99.90;;;;;;5042718;28;20045;-65
2022/10/03 10:39:20;;;;;;;11.38;3.30;;;16.90;99.90;;;;;;5055949;28;20045;-64
2022/10/03 10:42:14;;;;;;;10.57;3.85;;;17.00;99.90;;;;;;5057094;28;20083;-69
2022/10/03 10:45:13;;;;;;;11.85;3.03;;;17.10;99.90;;;;;;5057129;28;20071;-64
2022/10/03 10:48:01;;;;;;;8.68;3.67;;;17.20;99.90;;;;;;5052627;28;20435;-65
2022/10/03 10:50:51;;;;;;;8.23;2.85;;;17.30;99.90;;;;;;5057006;28;20102;-66
2022/10/03 10:53:49;;;;;;;13.15;7.53;;;17.30;99.90;;;;;;5056102;28;20419;-64
2022/10/03 10:56:41;;;;;;;11.75;4.70;;;17.50;99.90;;;;;;5056480;28;20040;-64
2022/10/03 10:59:21;;;;;;;7.20;3.40;;;17.60;99.90;;;;;;5056462;28;20136;-63
2022/10/03 11:02:00;;;;;;;;;;;17.70;99.90;;;;;;5056701;28;20041;-63
2022/10/03 11:05:05;;;;;;;7.43;2.80;;;17.80;99.90;;;;;;5056954;28;19963;-70
2022/10/03 11:07:51;;;;;;;7.75;2.63;;;17.80;99.90;;;;;;5057519;28;20052;-64
2022/10/03 11:10:51;;;;;;;8.07;2.80;;;17.80;99.90;;;;;;5057382;28;20362;-65
2022/10/03 11:13:55;;;;;;;14.98;3.13;;;17.80;99.90;;;;;;5055613;28;20044;-61
2022/10/03 11:16:25;;;;;;;11.13;3.45;;;17.90;99.90;;;;;;5056408;28;20075;-61
2022/10/03 11:19:04;;;;;;;13.70;3.50;;;17.90;99.90;;;;;;5055468;28;20040;-68
2022/10/03 11:22:08;;;;;;;9.43;3.22;;;18.00;99.90;;;;;;5056772;28;20048;-65
2022/10/03 11:24:54;;;;;;;11.43;3.47;;;18.20;99.90;;;;;;5056354;28;20067;-66
2022/10/03 11:27:33;;;;;;;8.13;2.90;;;18.30;99.90;;;;;;5054907;28;20534;-67
2022/10/03 11:30:16;;;;;;;9.88;3.22;;;18.40;99.90;;;;;;5056224;28;20098;-65
2022/10/03 11:33:20;;;;;;;9.30;3.45;;;18.40;99.90;;;;;;5055800;28;20044;-64
2022/10/03 11:36:22;;;;;;;8.23;3.03;;;18.60;99.90;;;;;;5056080;28;20040;-64
2022/10/03 11:38:58;;;;;;;12.18;4.35;;;18.70;99.90;;;;;;5047964;28;20045;-56
2022/10/03 11:41:25;;;;;;;12.32;2.95;;;18.70;99.90;;;;;;5056982;28;20449;-57
2022/10/03 11:44:15;;;;;;;10.07;5.18;;;18.70;99.90;;;;;;5056431;28;20037;-66
2022/10/03 11:47:04;;;;;;;9.18;3.50;;;18.80;99.90;;;;;;5055470;28;20090;-66
2022/10/03 11:49:49;;;;;;;;;;;18.90;99.90;;;;;;5038694;28;20432;-65
2022/10/03 11:52:31;;;;;;;9.13;2.80;;;18.90;99.90;;;;;;5056536;28;19917;-66
2022/10/03 11:55:01;;;;;;;9.70;2.58;;;19.00;99.90;;;;;;5054477;28;20045;-64
2022/10/03 11:57:33;;;;;;;9.35;2.85;;;19.10;99.90;;;;;;5055587;28;20454;-65
2022/10/03 12:00:03;;;;;;;11.38;2.90;;;19.10;99.90;;;;;;5054694;28;20053;-65
2022/10/03 12:02:29;;;;;;;;;;;19.00;99.90;;;;;;5038413;28;20472;-65
2022/10/03 12:05:06;;;;;;;11.27;3.00;;;18.90;99.90;;;;;;5055716;28;19939;-66
2022/10/03 12:10:40;;;;;;;11.10;3.67;;;18.60;99.90;;;;;;5054560;28;20044;-66
2022/10/03 12:13:13;;;;;;;17.08;13.82;;;18.60;99.90;;;;;;5054286;28;20480;-65
2022/10/03 12:15:51;;;;;;;22.55;15.27;;;18.60;99.90;;;;;;5070984;28;20122;-64
2022/10/03 12:18:41;;;;;;;8.43;4.72;;;18.70;99.90;;;;;;5037952;28;20457;-65
2022/10/03 12:21:18;;;;;;;9.05;3.38;;;18.60;99.90;;;;;;5054858;28;20042;-65
2022/10/03 12:24:21;;;;;;;9.23;3.17;;;18.60;99.90;;;;;;5055916;28;20068;-64
2022/10/03 12:26:59;;;;;;;8.63;2.53;;;18.50;99.90;;;;;;5055915;28;20106;-65
2022/10/03 12:29:30;;;;;;;9.32;2.90;;;18.60;99.90;;;;;;5038059;28;20083;-65
2022/10/03 12:32:16;;;;;;;7.78;2.72;;;18.70;99.90;;;;;;5053681;28;20045;-65
2022/10/03 12:35:01;;;;;;;8.35;2.92;;;18.80;99.90;;;;;;5037060;28;20071;-65
2022/10/03 12:37:37;;;;;;;6.90;2.72;;;18.80;99.90;;;;;;5054331;28;20460;-66
2022/10/03 12:40:13;;;;;;;8.45;3.25;;;18.80;99.90;;;;;;5054590;28;20052;-66
2022/10/03 12:43:17;;;;;;;7.15;3.47;;;18.80;99.90;;;;;;5054443;28;20041;-66
2022/10/03 12:45:53;;;;;;;8.07;2.83;;;18.80;99.90;;;;;;5053658;28;20467;-68
2022/10/03 12:48:41;;;;;;;9.07;2.80;;;18.70;99.90;;;;;;5037335;28;20127;-68
2022/10/03 12:51:44;;;;;;;10.07;3.00;;;18.80;99.90;;;;;;5037185;28;20053;-66
2022/10/03 12:54:39;;;;;;;9.88;3.17;;;18.80;99.90;;;;;;5054043;28;20052;-68
2022/10/03 12:57:10;;;;;;;7.22;2.50;;;18.90;99.90;;;;;;5054243;28;20041;-67
2022/10/03 12:59:53;;;;;;;8.05;2.88;;;19.10;99.90;;;;;;5053209;28;20045;-68
2022/10/03 13:02:39;;;;;;;8.27;2.75;;;19.20;99.90;;;;;;5052843;28;20087;-67
2022/10/03 13:05:40;;;;;;;8.48;2.55;;;19.10;99.90;;;;;;5053683;28;20052;-68
2022/10/03 13:08:34;;;;;;;9.80;2.97;;;19.10;99.90;;;;;;5053789;28;20075;-67
2022/10/03 13:11:34;;;;;;;8.90;2.40;;;19.10;99.90;;;;;;5054200;28;20044;-66
2022/10/03 13:14:16;;;;;;;9.98;3.63;;;19.20;99.90;;;;;;5050135;28;20095;-67
2022/10/03 13:17:04;;;;;;;8.43;3.67;;;19.20;99.90;;;;;;5053983;28;20076;-67
2022/10/03 13:19:55;;;;;;;7.93;2.83;;;19.20;99.90;;;;;;5054627;28;20045;-68
2022/10/03 13:22:46;;;;;;;21.73;3.67;;;19.10;99.90;;;;;;5052984;28;20049;-67
2022/10/03 13:25:20;;;;;;;9.88;2.90;;;19.10;99.90;;;;;;5054179;28;20045;-66
2022/10/03 13:27:51;;;;;;;8.05;3.08;;;19.10;99.90;;;;;;5053549;28;20045;-66
2022/10/03 13:30:52;;;;;;;14.95;4.70;;;19.20;99.90;;;;;;5036210;28;20041;-66
2022/10/03 13:33:27;;;;;;;12.25;3.58;;;19.20;99.90;;;;;;5038992;28;20041;-67
2022/10/03 13:35:58;;;;;;;11.57;3.38;;;19.30;99.90;;;;;;5036764;28;20057;-69
2022/10/03 13:38:41;;;;;;;7.07;2.65;;;19.30;99.90;;;;;;5035881;28;20060;-68
2022/10/03 13:41:16;;;;;;;7.68;2.83;;;19.30;99.90;;;;;;5053215;28;20048;-67
2022/10/03 13:43:50;;;;;;;7.82;3.20;;;19.30;99.90;;;;;;5036749;28;20419;-72
2022/10/03 13:46:30;;;;;;;6.95;2.80;;;19.20;99.90;;;;;;5052639;28;20052;-72
2022/10/03 13:49:01;;;;;;;9.45;3.00;;;19.20;99.90;;;;;;5036877;28;20099;-72
2022/10/03 13:51:44;;;;;;;9.70;3.17;;;19.20;99.90;;;;;;5051832;28;20500;-71
2022/10/03 13:54:45;;;;;;;8.65;2.45;;;19.20;99.90;;;;;;5052086;28;20049;-72
2022/10/03 13:57:57;;;;;;;7.32;2.45;;;19.20;99.90;;;;;;5053196;28;20048;-70
2022/10/03 14:00:25;;;;;;;9.23;2.50;;;19.10;99.90;;;;;;5031183;28;20045;-73
2022/10/03 14:03:01;;;;;;;7.20;2.63;;;19.10;99.90;;;;;;5014085;28;20123;-81
2022/10/03 14:06:01;;;;;;;10.27;3.08;;;19.20;99.90;;;;;;5054189;28;20379;-70
2022/10/03 14:08:43;;;;;;;9.00;2.92;;;19.20;99.90;;;;;;5052954;28;20310;-69
2022/10/03 14:11:28;;;;;;;7.32;2.53;;;19.20;99.90;;;;;;5051941;28;20571;-73
2022/10/03 14:14:25;;;;;;;12.75;3.03;;;19.30;99.90;;;;;;5053915;28;20045;-70
2022/10/03 14:17:05;;;;;;;7.47;2.60;;;19.30;99.90;;;;;;5051030;28;20094;-68
2022/10/03 14:19:59;;;;;;;11.15;2.75;;;19.20;99.90;;;;;;5036468;28;20299;-67
2022/10/03 14:22:57;;;;;;;6.65;4.32;;;19.10;99.90;;;;;;5053263;28;20045;-70
2022/10/03 14:25:27;;;;;;;12.18;4.50;;;19.00;99.90;;;;;;5052547;28;20041;-70
2022/10/03 14:28:29;;;;;;;12.13;3.28;;;18.90;99.90;;;;;;5051930;28;20151;-72
2022/10/03 14:31:10;;;;;;;8.13;3.22;;;18.80;99.90;;;;;;5041363;28;20080;-72
2022/10/03 14:33:42;;;;;;;7.50;3.03;;;18.90;99.90;;;;;;5051433;28;20041;-72
2022/10/03 14:36:31;;;;;;;7.25;2.40;;;18.80;99.90;;;;;;5052793;28;20045;-70
2022/10/03 14:39:14;;;;;;;9.38;2.75;;;18.80;99.90;;;;;;5052671;28;20053;-69
2022/10/03 14:41:45;;;;;;;10.60;2.90;;;18.80;99.90;;;;;;5051805;28;20532;-69